createdAt,value
2023-03-06T00:01:02.327Z,34.28
2023-03-06T00:03:30.327Z,32.30
2023-03-06T00:05:58.950Z,33.78
2023-03-06T00:08:28.772Z,32.47
2023-03-06T00:10:57.249Z,32.95
2023-03-06T00:13:26.594Z,33.15
2023-03-06T00:15:54.499Z,32.30
2023-03-06T00:18:22.214Z,34.30
2023-03-06T00:20:50.074Z,30.60
2023-03-06T00:23:17.826Z,37.28
2023-03-06T00:25:46.810Z,35.72
2023-03-06T00:28:15.818Z,39.80
2023-03-06T00:30:46.044Z,32.05
2023-03-06T00:33:14.037Z,34.22
2023-03-06T00:35:42.334Z,36.60
2023-03-06T00:38:12.699Z,38.95
2023-03-06T00:40:40.624Z,36.05
2023-03-06T00:43:08.308Z,33.75
2023-03-06T00:45:36.804Z,29.45
2023-03-06T00:48:05.199Z,32.42
2023-03-06T00:50:32.924Z,35.22
2023-03-06T00:53:00.881Z,37.28
2023-03-06T00:55:29.559Z,33.67
2023-03-06T00:57:57.338Z,33.22
2023-03-06T01:00:25.105Z,34.38
2023-03-06T01:02:53.718Z,35.40
2023-03-06T01:05:23.082Z,38.55
2023-03-06T01:07:50.843Z,33.53
2023-03-06T01:10:20.492Z,35.50
2023-03-06T01:12:48.798Z,36.75
2023-03-06T01:15:16.491Z,31.45
2023-03-06T01:17:44.726Z,35.08
2023-03-06T01:20:17.200Z,37.72
2023-03-06T01:22:45.019Z,35.88
2023-03-06T01:25:13.435Z,35.40
2023-03-06T01:27:41.358Z,34.75
2023-03-06T01:30:12.367Z,39.20
2023-03-06T01:32:40.323Z,36.83
2023-03-06T01:35:09.062Z,35.15
2023-03-06T01:37:38.109Z,40.58
2023-03-06T01:40:08.269Z,35.92
2023-03-06T01:42:36.151Z,38.75
2023-03-06T01:45:13.383Z,38.00
2023-03-06T01:47:41.310Z,40.35
2023-03-06T01:50:11.152Z,40.17
2023-03-06T01:52:59.604Z,47.55
2023-03-06T01:55:34.329Z,42.25
2023-03-06T01:58:07.690Z,40.07
2023-03-06T02:00:35.472Z,40.03
2023-03-06T02:03:28.657Z,42.60
2023-03-06T02:05:56.750Z,40.55
2023-03-06T02:08:24.973Z,45.35
2023-03-06T02:11:15.165Z,38.95
2023-03-06T02:13:45.380Z,35.97
2023-03-06T02:16:14.572Z,38.20
2023-03-06T02:18:44.402Z,45.70
2023-03-06T02:21:21.530Z,42.85
2023-03-06T02:24:12.340Z,37.75
2023-03-06T02:26:42.701Z,36.50
2023-03-06T02:29:11.139Z,39.75
2023-03-06T02:31:38.837Z,37.78
2023-03-06T02:34:15.625Z,42.53
2023-03-06T02:36:48.848Z,38.55
2023-03-06T02:39:22.457Z,38.17
2023-03-06T02:41:50.290Z,39.30
2023-03-06T02:44:22.316Z,42.05
2023-03-06T02:46:50.365Z,36.78
2023-03-06T02:49:18.021Z,37.10
2023-03-06T02:51:45.762Z,41.20
2023-03-06T02:54:13.587Z,39.38
2023-03-06T02:56:43.344Z,41.20
2023-03-06T02:59:12.079Z,39.65
2023-03-06T03:01:40.703Z,38.80
2023-03-06T03:04:09.148Z,42.05
2023-03-06T03:06:38.184Z,41.65
2023-03-06T03:09:07.372Z,39.67
2023-03-06T03:11:36.217Z,37.30
2023-03-06T03:14:04.027Z,34.90
2023-03-06T03:16:31.902Z,37.22
2023-03-06T03:19:00.023Z,34.88
2023-03-06T03:21:28.243Z,35.78
2023-03-06T03:23:56.968Z,36.75
2023-03-06T03:26:28.284Z,36.33
2023-03-06T03:29:10.870Z,36.15
2023-03-06T03:31:38.778Z,36.42
2023-03-06T03:34:06.498Z,36.70
2023-03-06T03:36:38.078Z,35.47
2023-03-06T03:39:07.721Z,37.53
2023-03-06T03:41:36.374Z,36.65
2023-03-06T03:44:07.770Z,37.15
2023-03-06T03:46:36.303Z,39.22
2023-03-06T03:49:06.405Z,38.42
2023-03-06T03:51:34.215Z,37.15
2023-03-06T03:54:02.002Z,41.05
2023-03-06T03:56:36.251Z,36.35
2023-03-06T03:59:11.863Z,38.72
2023-03-06T04:01:48.106Z,43.22
2023-03-06T04:04:15.974Z,37.88
2023-03-06T04:06:45.452Z,36.25
2023-03-06T04:09:14.106Z,38.85
2023-03-06T04:11:42.582Z,37.78
2023-03-06T04:14:10.352Z,36.17
2023-03-06T04:16:38.347Z,35.92
2023-03-06T04:19:07.489Z,34.63
2023-03-06T04:21:35.830Z,33.97
2023-03-06T04:24:04.254Z,36.35
2023-03-06T04:26:32.195Z,38.28
2023-03-06T04:28:59.977Z,43.05
2023-03-06T04:31:28.111Z,37.03
2023-03-06T04:33:56.377Z,38.85
2023-03-06T04:36:34.262Z,39.03
2023-03-06T04:39:07.052Z,38.08
2023-03-06T04:41:35.788Z,37.70
2023-03-06T04:44:03.669Z,38.63
2023-03-06T04:46:31.329Z,40.33
2023-03-06T04:48:59.199Z,39.83
2023-03-06T04:51:27.448Z,42.03
2023-03-06T04:53:55.196Z,40.38
2023-03-06T04:56:23.299Z,38.05
2023-03-06T04:58:51.097Z,37.35
2023-03-06T05:01:18.869Z,39.90
2023-03-06T05:03:46.614Z,42.08
2023-03-06T05:06:14.251Z,36.40
2023-03-06T05:08:42.173Z,40.03
2023-03-06T05:11:09.937Z,39.47
2023-03-06T05:13:37.608Z,36.85
2023-03-06T05:16:07.188Z,36.38
2023-03-06T05:18:35.848Z,37.17
2023-03-06T05:21:05.130Z,39.50
2023-03-06T05:23:36.383Z,39.17
2023-03-06T05:26:11.033Z,35.63
2023-03-06T05:28:39.528Z,38.27
2023-03-06T05:31:08.551Z,37.45
2023-03-06T05:33:36.905Z,43.35
2023-03-06T05:36:05.249Z,39.33
2023-03-06T05:38:33.014Z,44.00
2023-03-06T05:41:00.840Z,40.45
2023-03-06T05:43:28.722Z,43.00
2023-03-06T05:46:05.846Z,38.78
2023-03-06T05:48:35.639Z,38.95
2023-03-06T05:51:04.906Z,39.63
2023-03-06T05:53:33.308Z,44.72
2023-03-06T05:56:08.923Z,37.38
2023-03-06T06:01:17.444Z,38.88
2023-03-06T06:03:46.601Z,37.38
2023-03-06T06:06:15.767Z,44.25
2023-03-06T06:08:43.958Z,39.75
2023-03-06T06:11:13.372Z,42.03
2023-03-06T06:13:41.743Z,41.33
2023-03-06T06:16:12.185Z,43.25
2023-03-06T06:18:41.399Z,40.63
2023-03-06T06:21:13.214Z,45.05
2023-03-06T06:23:41.679Z,41.72
2023-03-06T06:26:11.041Z,45.95
2023-03-06T06:28:38.669Z,46.10
2023-03-06T06:31:12.188Z,45.97
2023-03-06T06:33:41.468Z,40.42
2023-03-06T06:36:21.007Z,43.28
2023-03-06T06:38:49.752Z,42.75
2023-03-06T06:44:08.803Z,38.53
2023-03-06T06:47:20.849Z,47.72
2023-03-06T06:49:25.244Z,44.05
2023-03-06T06:51:52.893Z,46.00
2023-03-06T06:54:22.262Z,43.25
2023-03-06T06:56:49.955Z,42.65
2023-03-06T06:59:17.728Z,44.00
2023-03-06T07:01:45.584Z,45.22
2023-03-06T07:04:14.228Z,44.28
2023-03-06T07:06:43.022Z,42.78
2023-03-06T07:09:12.116Z,41.95
2023-03-06T07:11:41.309Z,39.83
2023-03-06T07:14:09.121Z,40.13
2023-03-06T07:16:36.964Z,41.88
2023-03-06T07:19:04.812Z,48.95
2023-03-06T07:21:33.194Z,44.70
2023-03-06T07:24:01.122Z,44.65
2023-03-06T07:26:32.099Z,44.28
2023-03-06T07:29:01.383Z,44.25
2023-03-06T07:31:29.258Z,49.35
2023-03-06T07:33:57.196Z,48.97
2023-03-06T07:36:25.029Z,50.60
2023-03-06T07:38:52.681Z,49.00
2023-03-06T07:41:22.493Z,49.63
2023-03-06T07:43:50.776Z,41.83
2023-03-06T07:46:19.519Z,47.42
2023-03-06T07:48:47.305Z,45.55
2023-03-06T07:51:21.513Z,49.35
2023-03-06T07:53:49.820Z,51.25
2023-03-06T07:56:18.694Z,48.55
2023-03-06T07:58:47.936Z,47.50
2023-03-06T08:01:19.978Z,47.95
2023-03-06T08:03:50.070Z,57.67
2023-03-06T08:06:22.068Z,45.65
2023-03-06T08:08:52.429Z,45.58
2023-03-06T08:11:24.064Z,47.15
2023-03-06T08:13:53.024Z,49.20
2023-03-06T08:16:23.251Z,50.30
2023-03-06T08:18:51.700Z,52.50
2023-03-06T08:21:23.758Z,55.50
2023-03-06T08:23:52.221Z,49.08
2023-03-06T08:26:29.802Z,45.28
2023-03-06T08:29:00.484Z,44.70
2023-03-06T08:31:40.203Z,51.28
2023-03-06T08:34:16.178Z,44.40
2023-03-06T08:36:44.573Z,46.08
2023-03-06T08:39:14.073Z,39.25
2023-03-06T08:41:42.508Z,39.05
2023-03-06T08:44:10.751Z,40.75
2023-03-06T08:46:39.148Z,41.25
2023-03-06T08:49:06.986Z,39.08
2023-03-06T08:51:34.828Z,36.13
2023-03-06T08:54:02.697Z,35.17
2023-03-06T08:56:35.125Z,36.90
2023-03-06T08:59:05.858Z,39.92
2023-03-06T09:01:37.622Z,34.80
2023-03-06T09:04:09.682Z,41.83
2023-03-06T09:06:41.767Z,30.58
2023-03-06T09:09:09.891Z,37.58
2023-03-06T09:11:38.317Z,38.60
2023-03-06T09:14:06.624Z,37.58
2023-03-06T09:16:34.552Z,39.88
2023-03-06T09:19:02.302Z,32.10
2023-03-06T09:21:30.115Z,29.10
2023-03-06T09:23:58.036Z,37.53
2023-03-06T09:26:39.553Z,33.92
2023-03-06T09:29:12.629Z,36.22
2023-03-06T09:31:40.552Z,31.05
2023-03-06T09:34:08.327Z,27.75
2023-03-06T09:36:53.357Z,24.33
2023-03-06T09:39:24.100Z,26.85
2023-03-06T09:41:52.537Z,29.00
2023-03-06T09:44:32.747Z,23.48
2023-03-06T09:47:34.251Z,24.80
2023-03-06T09:50:33.042Z,29.90
2023-03-06T09:53:22.042Z,21.65
2023-03-06T09:56:23.915Z,27.52
2023-03-06T09:59:03.706Z,26.17
2023-03-06T10:01:45.317Z,25.63
2023-03-06T10:04:31.656Z,25.10
2023-03-06T10:07:50.473Z,28.05
2023-03-06T10:10:31.295Z,27.13
2023-03-06T10:13:28.937Z,26.20
2023-03-06T10:16:25.320Z,26.98
2023-03-06T10:18:55.608Z,25.58
2023-03-06T10:21:51.388Z,22.63
2023-03-06T10:24:31.117Z,23.02
2023-03-06T10:27:37.390Z,26.10
2023-03-06T10:30:36.731Z,20.15
2023-03-06T10:33:22.935Z,22.88
2023-03-06T10:35:53.538Z,24.10
2023-03-06T10:38:37.760Z,22.80
2023-03-06T10:41:11.674Z,26.58
2023-03-06T10:43:41.842Z,24.35
2023-03-06T10:46:12.814Z,22.80
2023-03-06T10:48:42.720Z,25.48
2023-03-06T10:51:19.549Z,22.20
2023-03-06T10:54:03.953Z,20.70
2023-03-06T10:56:36.289Z,20.73
2023-03-06T10:59:14.307Z,25.60
2023-03-06T11:01:48.597Z,23.30
2023-03-06T11:04:35.086Z,23.30
2023-03-06T11:07:06.152Z,23.20
2023-03-06T11:09:34.320Z,23.90
2023-03-06T11:12:25.589Z,20.73
2023-03-06T11:15:22.455Z,22.55
2023-03-06T11:18:37.824Z,20.85
2023-03-06T11:21:25.584Z,22.40
2023-03-06T11:23:57.468Z,22.38
2023-03-06T11:26:38.746Z,25.08
2023-03-06T11:29:22.293Z,25.00
2023-03-06T11:31:57.263Z,27.45
2023-03-06T11:34:50.506Z,26.55
2023-03-06T11:37:46.409Z,31.20
2023-03-06T11:40:24.993Z,26.27
2023-03-06T11:43:37.947Z,25.42
2023-03-06T11:46:17.849Z,25.85
2023-03-06T11:49:04.308Z,21.40
2023-03-06T11:51:38.173Z,23.42
2023-03-06T11:54:06.146Z,23.38
2023-03-06T11:56:57.891Z,26.80
2023-03-06T12:00:17.698Z,30.35
2023-03-06T12:03:25.769Z,19.92
2023-03-06T12:06:15.330Z,17.70
2023-03-06T12:09:09.165Z,18.73
2023-03-06T12:12:33.053Z,14.60
2023-03-06T12:15:22.012Z,18.23
2023-03-06T12:19:09.620Z,19.95
2023-03-06T12:22:23.298Z,19.60
2023-03-06T12:25:23.139Z,15.23
2023-03-06T12:28:02.212Z,17.83
2023-03-06T12:30:58.200Z,18.40
2023-03-06T12:34:05.996Z,16.20
2023-03-06T12:36:47.259Z,17.83
2023-03-06T12:39:42.036Z,18.00
2023-03-06T12:42:47.889Z,15.77
2023-03-06T12:45:32.060Z,17.27
2023-03-06T12:48:01.768Z,17.60
2023-03-06T12:50:34.296Z,17.50
2023-03-06T12:53:06.162Z,18.15
2023-03-06T12:55:47.544Z,17.77
2023-03-06T12:58:30.685Z,13.02
2023-03-06T13:01:16.424Z,14.23
2023-03-06T13:04:05.870Z,16.55
2023-03-06T13:07:10.889Z,15.40
2023-03-06T13:10:16.305Z,19.38
2023-03-06T13:13:01.172Z,15.30
2023-03-06T13:15:41.086Z,15.38
2023-03-06T13:18:35.158Z,17.40
2023-03-06T13:21:04.517Z,14.45
2023-03-06T13:23:43.258Z,17.38
2023-03-06T13:26:34.245Z,15.68
2023-03-06T13:29:01.952Z,14.48
2023-03-06T13:31:32.386Z,17.60
2023-03-06T13:34:27.068Z,21.20
2023-03-06T13:37:17.522Z,17.35
2023-03-06T13:40:06.532Z,18.15
2023-03-06T13:42:44.619Z,16.88
2023-03-06T13:45:37.846Z,18.77
2023-03-06T13:48:30.370Z,18.38
2023-03-06T13:50:55.623Z,17.05
2023-03-06T13:53:32.169Z,16.35
2023-03-06T13:56:31.010Z,17.08
2023-03-06T13:59:23.248Z,20.05
2023-03-06T14:02:11.148Z,19.02
2023-03-06T14:04:56.539Z,19.35
2023-03-06T14:07:34.404Z,21.10
2023-03-06T14:10:14.102Z,22.90
2023-03-06T14:13:14.355Z,23.73
2023-03-06T14:15:49.623Z,23.17
2023-03-06T14:18:23.914Z,22.42
2023-03-06T14:20:58.739Z,19.33
2023-03-06T14:23:38.218Z,18.83
2023-03-06T14:26:17.552Z,26.20
2023-03-06T14:28:58.650Z,20.58
2023-03-06T14:31:31.600Z,22.70
2023-03-06T14:34:04.985Z,20.42
2023-03-06T14:37:07.738Z,19.05
2023-03-06T14:39:44.736Z,20.23
2023-03-06T14:42:27.729Z,20.50
2023-03-06T14:45:19.961Z,20.15
2023-03-06T14:47:52.199Z,17.70
2023-03-06T14:50:29.981Z,21.80
2023-03-06T14:53:18.977Z,19.80
2023-03-06T14:55:53.592Z,21.48
2023-03-06T14:58:43.885Z,21.02
2023-03-06T15:01:15.476Z,21.70
2023-03-06T15:03:49.079Z,19.50
2023-03-06T15:06:24.143Z,20.27
2023-03-06T15:09:30.610Z,20.25
2023-03-06T15:12:21.305Z,20.65
2023-03-06T15:15:10.499Z,22.05
2023-03-06T15:17:43.833Z,21.60
2023-03-06T15:20:36.371Z,28.73
2023-03-06T15:23:16.072Z,19.92
2023-03-06T15:26:36.964Z,25.95
2023-03-06T15:29:11.029Z,18.75
2023-03-06T15:31:45.043Z,20.17
2023-03-06T15:34:12.800Z,19.40
2023-03-06T15:36:57.097Z,22.02
2023-03-06T15:39:40.554Z,21.15
2023-03-06T15:42:26.152Z,21.38
2023-03-06T15:45:05.627Z,23.20
2023-03-06T15:47:33.302Z,21.15
2023-03-06T15:50:00.942Z,22.33
2023-03-06T15:52:28.893Z,22.58
2023-03-06T15:54:56.667Z,20.98
2023-03-06T15:57:30.497Z,21.48
2023-03-06T16:00:03.141Z,20.38
2023-03-06T16:02:39.221Z,19.33
2023-03-06T16:05:17.888Z,17.73
2023-03-06T16:07:46.930Z,16.45
2023-03-06T16:10:22.204Z,14.40
2023-03-06T16:12:57.677Z,13.73
2023-03-06T16:15:29.693Z,15.45
2023-03-06T16:17:58.890Z,18.08
2023-03-06T16:20:29.589Z,18.17
2023-03-06T16:22:58.853Z,13.57
2023-03-06T16:25:28.325Z,14.10
2023-03-06T16:27:58.268Z,11.73
2023-03-06T16:30:36.857Z,12.48
2023-03-06T16:33:07.900Z,17.75
2023-03-06T16:35:41.748Z,11.40
2023-03-06T16:38:21.360Z,12.25
2023-03-06T16:40:57.505Z,12.57
2023-03-06T16:43:27.789Z,10.63
2023-03-06T16:45:58.840Z,11.57
2023-03-06T16:48:34.148Z,11.85
2023-03-06T16:51:04.179Z,11.38
2023-03-06T16:53:32.262Z,9.70
2023-03-06T16:56:06.904Z,10.25
2023-03-06T16:58:40.848Z,10.32
2023-03-06T17:01:15.097Z,11.75
2023-03-06T17:03:48.498Z,11.38
2023-03-06T17:06:27.250Z,11.23
2023-03-06T17:08:57.200Z,13.23
2023-03-06T17:11:27.292Z,10.57
2023-03-06T17:13:57.520Z,11.38
2023-03-06T17:16:25.692Z,10.88
2023-03-06T17:18:58.153Z,9.73
2023-03-06T17:21:35.586Z,10.95
2023-03-06T17:24:09.259Z,9.82
2023-03-06T17:26:42.273Z,13.82
2023-03-06T17:29:12.082Z,12.48
2023-03-06T17:31:43.007Z,11.20
2023-03-06T17:34:10.896Z,14.27
2023-03-06T17:36:38.810Z,16.30
2023-03-06T17:39:06.737Z,12.95
2023-03-06T17:41:37.466Z,13.05
2023-03-06T17:44:10.846Z,13.15
2023-03-06T17:46:42.121Z,11.95
2023-03-06T17:49:10.147Z,11.82
2023-03-06T17:51:38.525Z,14.50
2023-03-06T17:54:18.981Z,14.70
2023-03-06T17:56:47.372Z,15.27
2023-03-06T17:59:15.165Z,14.65
2023-03-06T18:01:47.530Z,12.18
2023-03-06T18:04:17.794Z,13.32
2023-03-06T18:06:46.113Z,15.30
2023-03-06T18:09:18.029Z,15.10
2023-03-06T18:11:48.725Z,12.40
2023-03-06T18:14:25.095Z,11.77
2023-03-06T18:16:53.142Z,17.58
2023-03-06T18:19:21.460Z,12.82
2023-03-06T18:21:49.305Z,14.50
2023-03-06T18:24:17.306Z,10.38
2023-03-06T18:26:45.849Z,10.35
2023-03-06T18:29:13.716Z,10.98
2023-03-06T18:31:42.592Z,12.50
2023-03-06T18:34:14.921Z,9.80
2023-03-06T18:36:51.728Z,9.48
2023-03-06T18:39:22.427Z,15.00
2023-03-06T18:41:56.171Z,11.48
2023-03-06T18:44:27.703Z,10.00
2023-03-06T18:46:57.680Z,11.43
2023-03-06T18:49:27.841Z,10.70
2023-03-06T18:52:00.263Z,11.10
2023-03-06T18:54:34.020Z,13.40
2023-03-06T18:57:02.192Z,12.15
2023-03-06T18:59:30.053Z,15.13
2023-03-06T19:01:58.562Z,11.77
2023-03-06T19:04:27.120Z,11.93
2023-03-06T19:06:55.011Z,15.02
2023-03-06T19:09:22.835Z,10.88
2023-03-06T19:11:50.661Z,11.20
2023-03-06T19:14:18.921Z,9.30
2023-03-06T19:16:46.610Z,9.70
2023-03-06T19:19:14.313Z,9.60
2023-03-06T19:21:42.070Z,10.38
2023-03-06T19:24:13.989Z,7.38
2023-03-06T19:26:42.808Z,5.78
2023-03-06T19:29:10.520Z,12.30
2023-03-06T19:31:38.170Z,6.78
2023-03-06T19:34:05.910Z,12.45
2023-03-06T19:36:34.588Z,13.80
2023-03-06T19:39:05.500Z,12.88
2023-03-06T19:41:34.475Z,11.95
2023-03-06T19:44:04.155Z,14.73
2023-03-06T19:46:32.172Z,8.32
2023-03-06T19:49:02.476Z,13.60
2023-03-06T19:51:30.508Z,14.18
2023-03-06T19:53:58.460Z,12.27
2023-03-06T19:56:29.287Z,16.90
2023-03-06T19:58:57.400Z,13.30
2023-03-06T20:01:27.284Z,16.73
2023-03-06T20:03:59.357Z,14.93
2023-03-06T20:06:37.581Z,19.80
2023-03-06T20:09:08.737Z,15.60
2023-03-06T20:11:36.733Z,17.98
2023-03-06T20:14:06.959Z,12.90
2023-03-06T20:16:35.604Z,14.23
2023-03-06T20:19:04.289Z,10.75
2023-03-06T20:21:38.250Z,9.32
2023-03-06T20:24:07.979Z,13.45
2023-03-06T20:26:37.016Z,14.65
2023-03-06T20:29:05.117Z,12.82
2023-03-06T20:31:33.113Z,15.25
2023-03-06T20:34:01.855Z,15.88
2023-03-06T20:36:33.017Z,12.00
2023-03-06T20:39:05.683Z,17.48
2023-03-06T20:41:33.512Z,10.43
2023-03-06T20:44:04.118Z,15.88
2023-03-06T20:46:32.744Z,16.23
2023-03-06T20:49:01.938Z,16.08
2023-03-06T20:51:37.585Z,12.23
2023-03-06T20:56:39.750Z,10.23
2023-03-06T20:59:11.570Z,12.40
2023-03-06T21:01:42.615Z,13.52
2023-03-06T21:04:16.471Z,9.35
2023-03-06T21:06:46.841Z,9.15
2023-03-06T21:09:17.017Z,17.30
2023-03-06T21:11:45.375Z,14.88
2023-03-06T21:14:14.332Z,8.65
2023-03-06T21:16:42.832Z,14.60
2023-03-06T21:19:11.473Z,9.55
2023-03-06T21:21:39.279Z,15.05
2023-03-06T21:24:07.484Z,14.02
2023-03-06T21:26:35.206Z,9.95
2023-03-06T21:29:03.249Z,9.93
2023-03-06T21:31:31.985Z,8.30
2023-03-06T21:34:00.126Z,18.90
2023-03-06T21:36:28.341Z,12.48
2023-03-06T21:38:56.166Z,10.93
2023-03-06T21:41:27.505Z,8.70
2023-03-06T21:44:01.439Z,7.32
2023-03-06T21:46:29.220Z,11.77
2023-03-06T21:48:57.883Z,12.32
2023-03-06T21:51:26.388Z,12.75
2023-03-06T21:53:55.025Z,12.35
2023-03-06T21:56:25.520Z,9.75
2023-03-06T21:58:53.384Z,8.57
2023-03-06T22:01:24.918Z,9.25
2023-03-06T22:03:53.292Z,13.75
2023-03-06T22:06:26.647Z,10.05
2023-03-06T22:08:59.800Z,11.50
2023-03-06T22:11:31.330Z,8.23
2023-03-06T22:14:00.270Z,11.50
2023-03-06T22:16:27.945Z,11.88
2023-03-06T22:18:55.939Z,10.05
2023-03-06T22:21:24.273Z,12.10
2023-03-06T22:23:55.092Z,14.05
2023-03-06T22:26:23.472Z,12.65
2023-03-06T22:28:51.137Z,16.70
2023-03-06T22:31:26.537Z,16.02
2023-03-06T22:33:56.259Z,17.30
2023-03-06T22:36:25.170Z,14.15
2023-03-06T22:38:59.515Z,13.13
2023-03-06T22:41:27.739Z,15.65
2023-03-06T22:43:57.305Z,16.15
2023-03-06T22:46:26.282Z,12.45
2023-03-06T22:48:57.280Z,9.93
2023-03-06T22:51:25.939Z,9.35
2023-03-06T22:53:54.134Z,10.57
2023-03-06T22:56:22.492Z,13.27
2023-03-06T22:58:50.329Z,14.70
2023-03-06T23:01:21.847Z,17.85
2023-03-06T23:03:55.794Z,10.90
2023-03-06T23:06:28.821Z,10.43
2023-03-06T23:09:04.526Z,15.48
2023-03-06T23:14:19.478Z,18.48
2023-03-06T23:17:06.031Z,13.00
2023-03-06T23:19:53.167Z,14.88
2023-03-06T23:22:39.313Z,15.05
2023-03-06T23:25:25.605Z,11.82
2023-03-06T23:27:53.493Z,12.77
2023-03-06T23:30:21.242Z,11.63
2023-03-06T23:32:48.926Z,12.20
2023-03-06T23:35:16.642Z,13.00
2023-03-06T23:37:44.359Z,11.32
2023-03-06T23:40:13.729Z,17.90
2023-03-06T23:42:41.476Z,18.38
2023-03-06T23:45:10.301Z,14.38
2023-03-06T23:47:38.033Z,14.93
2023-03-06T23:50:06.419Z,16.60
2023-03-06T23:52:34.296Z,11.30
2023-03-06T23:55:01.902Z,13.05
2023-03-06T23:57:30.667Z,13.05
2023-03-06T23:59:58.548Z,17.27
